Time;durP1;ratioP1;P1;durP2;ratioP2;P2;SDS_P1;SDS_P2;PMS_P1;PMS_P2;Temp;Humidity;BMP_temperature;BMP_pressure;BME280_temperature;BME280_humidity;BME280_pressure;Samples;Min_cycle;Max_cycle;Signal;HPM_P1;HPM_P2
2022/01/15 00:01:47;;;;;;;31.40;15.70;;;-1.80;99.90;;;;;;5095049;28;20689;-62
2022/01/15 00:04:13;;;;;;;32.53;16.17;;;-1.80;99.90;;;;;;5094732;28;20196;-62
2022/01/15 00:06:39;;;;;;;26.47;15.30;;;-1.80;99.90;;;;;;5095033;28;20187;-61
2022/01/15 00:09:05;;;;;;;30.07;15.10;;;-1.80;99.90;;;;;;5094751;28;20610;-61
2022/01/15 00:11:31;;;;;;;30.80;16.07;;;-1.80;99.90;;;;;;5094831;28;20172;-62
2022/01/15 00:14:10;;;;;;;30.23;16.07;;;-1.80;99.90;;;;;;5090067;28;20272;-61
2022/01/15 00:19:42;;;;;;;31.03;14.50;;;-1.80;99.90;;;;;;5089741;28;20222;-62
2022/01/15 00:22:09;;;;;;;31.10;15.67;;;-1.80;99.90;;;;;;5094812;28;20176;-62
2022/01/15 00:24:35;;;;;;;29.67;15.93;;;-1.70;99.90;;;;;;5094765;28;20266;-61
2022/01/15 00:27:00;;;;;;;40.20;14.67;;;-1.70;99.90;;;;;;5094250;28;20691;-62
2022/01/15 00:29:26;;;;;;;26.73;14.83;;;-1.70;99.90;;;;;;5094783;28;20180;-59
2022/01/15 00:31:51;;;;;;;31.77;14.23;;;-1.70;99.90;;;;;;5094447;28;20263;-59
2022/01/15 00:34:17;;;;;;;27.20;14.53;;;-1.70;99.90;;;;;;5094556;28;20176;-59
2022/01/15 00:36:42;;;;;;;34.17;14.53;;;-1.70;99.90;;;;;;5093112;28;20183;-59
2022/01/15 00:39:08;;;;;;;27.43;14.23;;;-1.70;99.90;;;;;;5094523;28;20200;-61
2022/01/15 00:41:34;;;;;;;44.40;14.63;;;-1.80;99.90;;;;;;5094506;28;20191;-59
2022/01/15 00:43:59;;;;;;;29.93;14.73;;;-1.80;99.90;;;;;;5093447;28;20267;-59
2022/01/15 00:46:25;;;;;;;30.97;15.10;;;-1.90;99.90;;;;;;5094291;28;20175;-59
2022/01/15 00:48:50;;;;;;;35.37;15.70;;;-1.90;99.90;;;;;;5094144;28;20534;-59
2022/01/15 00:51:16;;;;;;;43.67;16.80;;;-2.00;99.90;;;;;;5093797;28;20555;-59
2022/01/15 00:53:41;;;;;;;38.03;16.43;;;-2.00;99.90;;;;;;5093728;28;20188;-59
2022/01/15 00:56:07;;;;;;;39.03;16.63;;;-2.00;99.90;;;;;;5093990;28;20180;-60
2022/01/15 00:58:32;;;;;;;39.33;17.03;;;-2.00;99.90;;;;;;5093735;28;20220;-60
2022/01/15 01:00:58;;;;;;;39.27;19.17;;;-2.00;99.90;;;;;;5094131;28;20191;-60
2022/01/15 01:03:23;;;;;;;40.43;18.37;;;-1.90;99.90;;;;;;5093862;28;20658;-62
2022/01/15 01:05:49;;;;;;;33.73;17.23;;;-1.90;99.90;;;;;;5093796;28;20598;-60
2022/01/15 01:08:15;;;;;;;33.13;16.50;;;-1.80;99.90;;;;;;5093528;28;20176;-60
2022/01/15 01:23:34;;;;;;;39.00;18.47;;;-1.60;99.90;;;;;;5093414;28;20635;-60
2022/01/15 01:26:11;;;;;;;35.93;17.43;;;-1.60;99.90;;;;;;5093331;28;20215;-61
2022/01/15 01:28:44;;;;;;;38.57;18.37;;;-1.60;99.90;;;;;;5092822;28;20536;-60
2022/01/15 01:33:41;;;;;;;39.00;18.20;;;-1.50;99.90;;;;;;5094925;28;20176;-60
2022/01/15 01:36:18;;;;;;;40.53;17.57;;;-1.50;99.90;;;;;;5098374;28;20180;-60
2022/01/15 01:38:57;;;;;;;42.77;16.50;;;-1.50;99.90;;;;;;5093458;28;20267;-60
2022/01/15 01:41:23;;;;;;;34.13;15.93;;;-1.50;99.90;;;;;;5093484;28;20264;-60
2022/01/15 01:43:55;;;;;;;33.13;15.30;;;-1.50;99.90;;;;;;5092843;28;20613;-60
2022/01/15 01:48:51;;;;;;;43.10;16.00;;;-1.50;99.90;;;;;;5093203;28;20184;-60
2022/01/15 01:51:42;;;;;;;40.57;16.73;;;-1.50;99.90;;;;;;5091266;28;20176;-59
2022/01/15 01:54:11;;;;;;;32.17;16.23;;;-1.50;99.90;;;;;;5093136;28;20180;-59
2022/01/15 01:56:38;;;;;;;31.27;15.60;;;-1.50;99.90;;;;;;5092620;28;20184;-59
2022/01/15 01:59:05;;;;;;;34.93;15.93;;;-1.50;99.90;;;;;;5092461;28;20232;-59
2022/01/15 02:01:31;;;;;;;36.47;16.20;;;-1.50;99.90;;;;;;5092876;28;20176;-60
2022/01/15 02:03:56;;;;;;;36.10;16.50;;;-1.50;99.90;;;;;;5092004;28;20188;-60
2022/01/15 02:06:22;;;;;;;32.43;16.57;;;-1.50;99.90;;;;;;5092407;28;20180;-60
2022/01/15 02:08:49;;;;;;;42.37;16.07;;;-1.50;99.90;;;;;;5092694;28;20176;-60
2022/01/15 02:11:15;;;;;;;34.67;16.00;;;-1.50;99.90;;;;;;5092188;28;20183;-60
2022/01/15 02:13:44;;;;;;;33.73;14.97;;;-1.50;99.90;;;;;;5092158;28;20643;-60
2022/01/15 02:16:12;;;;;;;33.57;15.93;;;-1.60;99.90;;;;;;5092717;28;20184;-60
2022/01/15 02:18:37;;;;;;;34.17;16.97;;;-1.60;99.90;;;;;;5091277;28;20185;-60
2022/01/15 02:23:43;;;;;;;32.37;16.33;;;-1.70;99.90;;;;;;5092134;28;20184;-60
2022/01/15 02:26:27;;;;;;;32.80;16.43;;;-1.70;99.90;;;;;;5092764;28;20218;-60
2022/01/15 02:28:56;;;;;;;33.37;16.50;;;-1.60;99.90;;;;;;5092675;28;20191;-60
2022/01/15 02:31:23;;;;;;;31.30;15.10;;;-1.60;99.90;;;;;;5092315;28;20180;-60
2022/01/15 02:33:51;;;;;;;37.73;16.17;;;-1.60;99.90;;;;;;5092209;28;20186;-60
2022/01/15 02:36:32;;;;;;;39.20;16.37;;;-1.60;99.90;;;;;;5091872;28;20716;-60
2022/01/15 02:38:58;;;;;;;41.20;16.37;;;-1.60;99.90;;;;;;5082665;28;20203;-60
2022/01/15 02:41:36;;;;;;;34.97;16.00;;;-1.60;99.90;;;;;;5092012;28;20588;-60
2022/01/15 02:44:05;;;;;;;31.60;16.10;;;-1.60;99.90;;;;;;5092033;28;20192;-60
2022/01/15 02:49:03;;;;;;;33.07;15.63;;;-1.70;99.90;;;;;;5091728;28;20174;-61
2022/01/15 02:51:31;;;;;;;38.77;16.63;;;-1.70;99.90;;;;;;5090140;28;20647;-61
2022/01/15 02:53:57;;;;;;;35.37;16.63;;;-1.70;99.90;;;;;;5091224;28;20304;-61
2022/01/15 02:56:36;;;;;;;31.30;14.70;;;-1.70;99.90;;;;;;5091935;28;20184;-60
2022/01/15 02:59:04;;;;;;;31.80;15.60;;;-1.70;99.90;;;;;;5077704;28;20303;-60
2022/01/15 03:01:30;;;;;;;32.77;15.87;;;-1.70;99.90;;;;;;5091778;28;20186;-60
2022/01/15 03:03:56;;;;;;;32.43;15.97;;;-1.70;99.90;;;;;;5091326;28;20192;-60
2022/01/15 03:06:21;;;;;;;31.63;16.10;;;-1.60;99.90;;;;;;5092031;28;20712;-60
2022/01/15 03:08:48;;;;;;;29.70;15.07;;;-1.60;99.90;;;;;;5091528;28;20643;-60
2022/01/15 03:11:14;;;;;;;29.17;15.60;;;-1.60;99.90;;;;;;5091300;28;20295;-60
2022/01/15 03:13:41;;;;;;;31.30;16.23;;;-1.60;99.90;;;;;;5090858;28;20282;-60
2022/01/15 03:16:08;;;;;;;31.07;15.43;;;-1.60;99.90;;;;;;5092735;28;20214;-60
2022/01/15 03:18:34;;;;;;;30.43;15.50;;;-1.60;99.90;;;;;;5095870;28;20208;-61
2022/01/15 03:21:00;;;;;;;32.00;15.23;;;-1.50;99.90;;;;;;5095463;28;20204;-60
2022/01/15 03:23:25;;;;;;;36.40;16.83;;;-1.40;99.90;;;;;;5096041;28;20196;-61
2022/01/15 03:25:51;;;;;;;39.50;17.03;;;-1.40;99.90;;;;;;5095074;28;20191;-61
2022/01/15 03:28:17;;;;;;;35.83;17.17;;;-1.40;99.90;;;;;;5095389;28;20544;-61
2022/01/15 03:30:42;;;;;;;35.87;16.47;;;-1.30;99.90;;;;;;5095605;28;20180;-61
2022/01/15 03:33:08;;;;;;;34.63;16.70;;;-1.30;99.90;;;;;;5095365;28;20187;-61
2022/01/15 03:35:35;;;;;;;34.63;16.47;;;-1.40;99.90;;;;;;5095440;28;20552;-61
2022/01/15 03:38:01;;;;;;;31.90;15.37;;;-1.40;99.90;;;;;;5095285;28;20184;-61
2022/01/15 03:40:26;;;;;;;32.37;15.77;;;-1.40;99.90;;;;;;5094415;28;20574;-60
2022/01/15 03:42:52;;;;;;;33.33;15.33;;;-1.30;99.90;;;;;;5095318;28;20207;-61
2022/01/15 03:45:18;;;;;;;30.97;14.93;;;-1.30;99.90;;;;;;5076656;28;20184;-61
2022/01/15 03:47:45;;;;;;;30.93;15.40;;;-1.30;99.90;;;;;;5095476;28;20184;-61
2022/01/15 03:50:11;;;;;;;32.00;15.50;;;-1.30;99.90;;;;;;5094599;28;20701;-61
2022/01/15 03:52:38;;;;;;;31.40;15.20;;;-1.30;99.90;;;;;;5089305;28;20275;-60
2022/01/15 03:55:06;;;;;;;29.73;14.83;;;-1.30;99.90;;;;;;5094841;28;20188;-61
2022/01/15 03:57:32;;;;;;;33.57;15.47;;;-1.20;99.90;;;;;;5095192;28;20561;-60
2022/01/15 03:59:59;;;;;;;31.93;15.70;;;-1.20;99.90;;;;;;5094207;28;20223;-60
2022/01/15 04:02:24;;;;;;;30.37;15.00;;;-1.30;99.90;;;;;;5095059;28;20222;-60
2022/01/15 04:04:50;;;;;;;34.20;15.63;;;-1.30;99.90;;;;;;5095067;28;20637;-60
2022/01/15 04:07:15;;;;;;;29.57;14.57;;;-1.20;99.90;;;;;;5094955;28;20178;-60
2022/01/15 04:09:41;;;;;;;28.50;14.37;;;-1.20;99.90;;;;;;5094716;28;20718;-61
2022/01/15 04:12:07;;;;;;;30.90;13.63;;;-1.20;99.90;;;;;;5094408;28;20172;-60
2022/01/15 04:14:32;;;;;;;28.00;13.80;;;-1.20;99.90;;;;;;5095200;28;20219;-61
2022/01/15 04:16:58;;;;;;;26.43;13.33;;;-1.20;99.90;;;;;;5093444;28;20275;-60
2022/01/15 04:19:24;;;;;;;29.20;13.53;;;-1.20;99.90;;;;;;5094505;28;20210;-61
2022/01/15 04:21:50;;;;;;;29.63;13.73;;;-1.20;99.90;;;;;;5093239;28;20228;-60
2022/01/15 04:24:15;;;;;;;31.10;14.57;;;-1.30;99.90;;;;;;5094773;28;20175;-60
2022/01/15 04:26:41;;;;;;;30.77;14.20;;;-1.30;99.90;;;;;;5094220;28;20215;-60
2022/01/15 04:29:07;;;;;;;34.70;14.73;;;-1.30;99.90;;;;;;5091512;28;20236;-60
2022/01/15 04:31:50;;;;;;;27.83;13.60;;;-1.30;99.90;;;;;;5093371;28;20536;-61
2022/01/15 04:34:18;;;;;;;27.43;13.50;;;-1.20;99.90;;;;;;5092674;28;20711;-60
2022/01/15 04:36:44;;;;;;;28.37;13.43;;;-1.30;99.90;;;;;;5094200;28;20218;-60
2022/01/15 04:39:11;;;;;;;27.60;13.80;;;-1.30;99.90;;;;;;5094271;28;20196;-60
2022/01/15 04:41:37;;;;;;;27.90;13.30;;;-1.20;99.90;;;;;;5094412;28;20255;-60
2022/01/15 04:44:05;;;;;;;26.40;12.60;;;-1.20;99.90;;;;;;5093949;28;20176;-61
2022/01/15 04:46:30;;;;;;;29.80;12.93;;;-1.20;99.90;;;;;;5094543;28;20176;-60
2022/01/15 04:48:56;;;;;;;27.87;13.17;;;-1.20;99.90;;;;;;5092405;28;20262;-60
2022/01/15 04:51:21;;;;;;;26.83;13.10;;;-1.20;99.90;;;;;;5091658;28;20212;-60
2022/01/15 04:53:47;;;;;;;27.77;12.77;;;-1.10;99.90;;;;;;5092036;28;20184;-60
2022/01/15 04:56:12;;;;;;;28.43;12.70;;;-1.10;99.90;;;;;;5093513;28;20188;-60
2022/01/15 04:58:38;;;;;;;27.33;11.70;;;-1.10;99.90;;;;;;5093136;28;20219;-61
2022/01/15 05:01:03;;;;;;;23.17;12.20;;;-1.10;99.90;;;;;;5093908;28;20196;-61
2022/01/15 05:03:29;;;;;;;23.30;11.03;;;-1.10;99.90;;;;;;5094119;28;20183;-60
2022/01/15 05:05:54;;;;;;;23.97;11.77;;;-1.10;99.90;;;;;;5093777;28;20226;-60
2022/01/15 05:08:20;;;;;;;22.23;11.50;;;-1.10;99.90;;;;;;5093677;28;20213;-61
2022/01/15 05:10:47;;;;;;;26.43;12.20;;;-1.10;99.90;;;;;;5093367;28;20529;-61
2022/01/15 05:13:20;;;;;;;27.07;11.90;;;-1.10;99.90;;;;;;5093471;28;20640;-61
2022/01/15 05:15:46;;;;;;;27.17;11.57;;;-1.20;99.90;;;;;;5095101;28;20199;-61
2022/01/15 05:18:12;;;;;;;27.60;11.17;;;-1.10;99.90;;;;;;5087359;28;20627;-60
2022/01/15 05:20:43;;;;;;;24.60;11.80;;;-1.10;99.90;;;;;;5091418;28;20218;-60
2022/01/15 05:23:08;;;;;;;25.87;11.90;;;-1.10;99.90;;;;;;5073982;28;20169;-61
2022/01/15 05:25:34;;;;;;;25.77;11.63;;;-1.10;99.90;;;;;;5077112;28;20242;-61
2022/01/15 05:27:59;;;;;;;26.47;12.17;;;-1.10;99.90;;;;;;5091413;28;20184;-61
2022/01/15 05:30:25;;;;;;;32.90;12.57;;;-1.10;99.90;;;;;;5082044;28;20222;-61
2022/01/15 05:32:51;;;;;;;23.27;11.20;;;-1.10;99.90;;;;;;5086285;28;20584;-61
2022/01/15 05:35:17;;;;;;;29.10;12.40;;;-1.10;99.90;;;;;;5091604;28;20183;-61
2022/01/15 05:37:42;;;;;;;26.20;11.73;;;-1.10;99.90;;;;;;5092367;28;20180;-61
2022/01/15 05:40:08;;;;;;;28.63;12.23;;;-1.10;99.90;;;;;;5088243;28;20569;-61
2022/01/15 05:42:34;;;;;;;26.60;11.83;;;-1.10;99.90;;;;;;5093494;28;20215;-61
2022/01/15 05:45:00;;;;;;;29.80;12.30;;;-1.10;99.90;;;;;;5092931;28;20215;-61
2022/01/15 05:47:25;;;;;;;33.50;12.23;;;-1.10;99.90;;;;;;5092615;28;20695;-61
2022/01/15 05:49:51;;;;;;;25.50;10.60;;;-1.10;99.90;;;;;;5092875;28;20176;-61
2022/01/15 05:52:17;;;;;;;23.23;11.67;;;-1.10;99.90;;;;;;5092601;28;20296;-60
2022/01/15 05:54:42;;;;;;;28.50;12.37;;;-1.00;99.90;;;;;;5092801;28;20275;-61
2022/01/15 05:57:08;;;;;;;24.97;11.50;;;-1.00;99.90;;;;;;5092904;28;20234;-61
2022/01/15 05:59:34;;;;;;;32.40;12.00;;;-1.00;99.90;;;;;;5092649;28;20238;-60
2022/01/15 06:02:00;;;;;;;27.37;11.27;;;-1.00;99.90;;;;;;5091998;28;20183;-61
2022/01/15 06:04:25;;;;;;;28.97;12.00;;;-1.00;99.90;;;;;;5092855;28;20172;-61
2022/01/15 06:06:51;;;;;;;28.37;12.63;;;-1.00;99.90;;;;;;5093076;28;20639;-61
2022/01/15 06:09:16;;;;;;;25.33;11.90;;;-1.00;99.90;;;;;;5092529;28;20258;-61
2022/01/15 06:11:43;;;;;;;29.77;12.07;;;-1.00;99.90;;;;;;5094946;28;20190;-61
2022/01/15 06:14:09;;;;;;;33.10;12.70;;;-1.00;99.90;;;;;;5101509;28;20178;-62
2022/01/15 06:16:34;;;;;;;33.20;13.27;;;-1.00;99.90;;;;;;5117481;27;20269;-61
2022/01/15 06:19:00;;;;;;;30.87;13.10;;;-0.90;99.90;;;;;;5092075;28;20296;-61
2022/01/15 06:21:25;;;;;;;31.23;12.53;;;-0.90;99.90;;;;;;5092947;28;20176;-61
2022/01/15 06:23:51;;;;;;;39.40;13.80;;;-0.80;99.90;;;;;;5092387;28;20183;-61
2022/01/15 06:26:17;;;;;;;34.87;13.23;;;-0.80;99.90;;;;;;5090989;28;20184;-62
2022/01/15 06:28:42;;;;;;;32.87;12.00;;;-0.80;99.90;;;;;;5092359;28;20176;-62
2022/01/15 06:31:08;;;;;;;33.67;13.10;;;-0.80;99.90;;;;;;5092525;28;20261;-62
2022/01/15 06:33:33;;;;;;;32.00;12.60;;;-0.70;99.90;;;;;;5091819;28;20255;-62
2022/01/15 06:35:59;;;;;;;26.57;12.40;;;-0.80;99.90;;;;;;5091021;28;20280;-61
2022/01/15 06:38:25;;;;;;;31.63;12.57;;;-0.70;99.90;;;;;;5099904;28;20172;-62
2022/01/15 06:40:50;;;;;;;28.30;12.17;;;-0.70;99.90;;;;;;5092129;28;20216;-61
2022/01/15 06:43:16;;;;;;;31.70;13.07;;;-0.80;99.90;;;;;;5092101;28;20176;-61
2022/01/15 06:45:41;;;;;;;28.30;11.87;;;-0.80;99.90;;;;;;5092428;28;20207;-61
2022/01/15 06:48:07;;;;;;;30.33;12.13;;;-0.70;99.90;;;;;;5092119;28;20539;-61
2022/01/15 06:50:33;;;;;;;31.60;12.63;;;-0.70;99.90;;;;;;5091754;28;20654;-61
2022/01/15 06:52:58;;;;;;;31.10;11.80;;;-0.70;99.90;;;;;;5091974;28;20195;-62
2022/01/15 06:55:24;;;;;;;28.97;12.07;;;-0.70;99.90;;;;;;5092501;28;20206;-61
2022/01/15 06:57:50;;;;;;;31.17;12.13;;;-0.70;99.90;;;;;;5091382;28;20180;-62
2022/01/15 07:00:16;;;;;;;29.83;11.33;;;-0.70;99.90;;;;;;5091219;28;20219;-62
2022/01/15 07:02:42;;;;;;;37.37;13.90;;;-0.70;99.90;;;;;;5091571;28;20180;-63
2022/01/15 07:05:09;;;;;;;28.70;13.13;;;-0.70;99.90;;;;;;5091726;28;20210;-63
2022/01/15 07:07:39;;;;;;;31.70;12.70;;;-0.70;99.90;;;;;;5091961;28;20202;-62
2022/01/15 07:10:05;;;;;;;26.93;12.33;;;-0.70;99.90;;;;;;5089628;28;20599;-62
2022/01/15 07:12:31;;;;;;;27.63;12.47;;;-0.80;99.90;;;;;;5091702;28;20207;-62
2022/01/15 07:14:56;;;;;;;25.77;12.03;;;-0.80;99.90;;;;;;5092114;28;20207;-60
2022/01/15 07:17:22;;;;;;;27.10;12.33;;;-0.80;99.90;;;;;;5091713;28;20628;-61
2022/01/15 07:19:51;;;;;;;26.73;12.57;;;-0.80;99.90;;;;;;5090954;28;20560;-60
2022/01/15 07:22:17;;;;;;;28.33;13.00;;;-0.90;99.90;;;;;;5090836;28;20239;-60
2022/01/15 07:24:42;;;;;;;28.73;12.90;;;-0.90;99.90;;;;;;5090640;28;20186;-60
2022/01/15 07:27:08;;;;;;;33.77;13.07;;;-0.90;99.90;;;;;;5090877;28;20180;-61
2022/01/15 07:29:36;;;;;;;30.30;12.50;;;-0.80;99.90;;;;;;5091657;28;20635;-63
2022/01/15 07:32:03;;;;;;;24.13;11.90;;;-0.80;99.90;;;;;;5091292;28;20184;-63
2022/01/15 07:34:28;;;;;;;27.40;12.10;;;-0.80;99.90;;;;;;5090223;28;20173;-60
2022/01/15 07:36:57;;;;;;;28.77;13.20;;;-0.80;99.90;;;;;;5091713;28;20198;-62
2022/01/15 07:39:23;;;;;;;29.37;12.37;;;-0.70;99.90;;;;;;5090869;28;20211;-62
2022/01/15 07:41:49;;;;;;;33.07;13.77;;;-0.70;99.90;;;;;;5091528;28;20176;-58
2022/01/15 07:44:14;;;;;;;30.70;12.57;;;-0.70;99.90;;;;;;5090740;28;20183;-61
2022/01/15 07:46:40;;;;;;;30.03;12.87;;;-0.60;99.90;;;;;;5091266;28;20188;-60
2022/01/15 07:49:06;;;;;;;33.50;14.47;;;-0.60;99.90;;;;;;5091364;28;20226;-59
2022/01/15 07:51:31;;;;;;;34.53;13.57;;;-0.60;99.90;;;;;;5090994;28;20267;-60
2022/01/15 07:53:57;;;;;;;32.87;13.27;;;-0.60;99.90;;;;;;5091436;28;20579;-61
2022/01/15 07:56:22;;;;;;;28.70;14.00;;;-0.70;99.90;;;;;;5090497;28;20191;-60
2022/01/15 07:58:48;;;;;;;32.50;13.40;;;-0.60;99.90;;;;;;5091090;28;20232;-60
2022/01/15 08:01:14;;;;;;;32.30;14.10;;;-0.60;99.90;;;;;;5090444;28;20188;-60
2022/01/15 08:03:40;;;;;;;30.07;12.97;;;-0.60;99.90;;;;;;5100612;28;20226;-60
2022/01/15 08:06:07;;;;;;;29.67;12.90;;;-0.60;99.90;;;;;;5106962;28;20191;-60
2022/01/15 08:08:33;;;;;;;36.30;13.73;;;-0.60;99.90;;;;;;5095454;28;20188;-60
2022/01/15 08:10:59;;;;;;;37.03;14.70;;;-0.60;99.90;;;;;;5095111;28;20275;-60
2022/01/15 08:13:25;;;;;;;33.80;14.30;;;-0.60;99.90;;;;;;5094933;28;20279;-60
2022/01/15 08:15:52;;;;;;;29.07;13.43;;;-0.60;99.90;;;;;;5095137;28;20194;-59
2022/01/15 08:18:19;;;;;;;33.37;14.10;;;-0.60;99.90;;;;;;5095520;28;20529;-59
2022/01/15 08:20:44;;;;;;;33.00;13.30;;;-0.60;99.90;;;;;;5094859;28;20670;-59
2022/01/15 08:23:10;;;;;;;32.63;13.77;;;-0.50;99.90;;;;;;5094837;28;20176;-59
2022/01/15 08:25:36;;;;;;;31.17;13.37;;;-0.50;99.90;;;;;;5095316;28;20192;-59
2022/01/15 08:28:01;;;;;;;31.13;13.37;;;-0.50;99.90;;;;;;5094958;28;20564;-60
2022/01/15 08:30:27;;;;;;;34.87;15.07;;;-0.50;99.90;;;;;;5094801;28;20263;-60
2022/01/15 08:32:53;;;;;;;36.03;14.90;;;-0.40;99.90;;;;;;5095153;28;20202;-59
2022/01/15 08:35:18;;;;;;;33.10;14.67;;;-0.40;99.90;;;;;;5094179;28;20176;-59
2022/01/15 08:37:44;;;;;;;29.90;13.73;;;-0.30;99.90;;;;;;5094104;28;20700;-60
2022/01/15 08:40:13;;;;;;;33.80;14.50;;;-0.30;99.90;;;;;;5094634;28;20252;-60
2022/01/15 08:42:39;;;;;;;36.63;14.57;;;-0.30;99.90;;;;;;5100985;28;20180;-60
2022/01/15 08:45:07;;;;;;;35.10;14.87;;;-0.20;99.90;;;;;;5104109;28;20260;-60
2022/01/15 08:47:33;;;;;;;36.77;14.93;;;-0.20;99.90;;;;;;5094257;28;20534;-60
2022/01/15 08:50:00;;;;;;;34.30;15.00;;;-0.20;99.90;;;;;;5094042;28;20173;-60
2022/01/15 08:52:25;;;;;;;37.40;15.37;;;-0.20;99.90;;;;;;5094032;28;20699;-60
2022/01/15 08:54:51;;;;;;;31.50;14.43;;;-0.20;99.90;;;;;;5094746;28;20373;-60
2022/01/15 08:57:16;;;;;;;35.53;15.30;;;-0.10;99.90;;;;;;5103098;28;20171;-60
2022/01/15 08:59:42;;;;;;;26.47;13.67;;;-0.10;99.90;;;;;;5114325;28;20698;-60
2022/01/15 09:02:08;;;;;;;36.23;14.70;;;-0.10;99.90;;;;;;5095019;28;20175;-60
2022/01/15 09:04:34;;;;;;;34.70;14.60;;;-0.10;99.90;;;;;;5094166;28;20333;-60
2022/01/15 09:07:00;;;;;;;36.33;14.67;;;-0.10;99.90;;;;;;5094308;28;20184;-60
2022/01/15 09:09:25;;;;;;;33.90;14.83;;;-0.10;99.90;;;;;;5098299;28;20177;-60
2022/01/15 09:11:51;;;;;;;36.63;14.93;;;-0.10;99.90;;;;;;5100533;28;20172;-60
2022/01/15 09:14:17;;;;;;;31.57;14.57;;;0.00;99.90;;;;;;5092249;28;20184;-60
2022/01/15 09:16:42;;;;;;;37.73;15.57;;;0.00;99.90;;;;;;5094761;28;20172;-61
2022/01/15 09:19:09;;;;;;;36.73;16.13;;;0.00;99.90;;;;;;5093436;28;20204;-61
2022/01/15 09:21:35;;;;;;;35.07;14.93;;;0.10;99.90;;;;;;5093960;28;20541;-61
2022/01/15 09:24:00;;;;;;;38.67;16.77;;;0.10;99.90;;;;;;5094385;28;20176;-61
2022/01/15 09:26:47;;;;;;;37.87;16.17;;;0.10;99.90;;;;;;5093749;28;20654;-61
2022/01/15 09:31:58;;;;;;;36.80;17.03;;;0.10;99.90;;;;;;5098974;28;20253;-61
2022/01/15 09:34:23;;;;;;;39.50;16.83;;;0.30;99.90;;;;;;5095736;28;20184;-61
2022/01/15 09:36:49;;;;;;;42.07;17.53;;;0.30;99.90;;;;;;5092509;28;20599;-61
2022/01/15 09:39:15;;;;;;;40.57;17.87;;;0.40;99.90;;;;;;5094340;28;20211;-61
2022/01/15 09:41:47;;;;;;;47.83;19.60;;;0.40;99.90;;;;;;5096868;28;20181;-61
2022/01/15 09:44:14;;;;;;;71.00;27.40;;;0.50;99.90;;;;;;5093767;28;20706;-60
2022/01/15 09:46:40;;;;;;;83.77;33.23;;;0.80;99.90;;;;;;5093394;28;20229;-59
2022/01/15 09:49:09;;;;;;;55.80;22.23;;;1.90;99.90;;;;;;5093605;28;20586;-59
2022/01/15 09:51:34;;;;;;;52.97;21.33;;;2.50;99.90;;;;;;5092820;28;20176;-61
2022/01/15 09:54:00;;;;;;;43.63;19.77;;;2.60;99.90;;;;;;5093149;28;20643;-62
2022/01/15 09:56:26;;;;;;;59.70;22.00;;;2.50;99.90;;;;;;5093360;28;20535;-60
2022/01/15 09:58:53;;;;;;;38.03;18.05;;;2.30;99.90;;;;;;5092917;28;20683;-61
2022/01/15 10:01:19;;;;;;;39.73;18.17;;;2.00;99.90;;;;;;5092411;28;20192;-61
2022/01/15 10:03:45;;;;;;;35.40;16.33;;;1.80;99.90;;;;;;5094391;28;20191;-61
2022/01/15 10:06:11;;;;;;;36.40;16.70;;;1.50;99.90;;;;;;5090788;28;20233;-60
2022/01/15 10:08:37;;;;;;;38.20;17.45;;;1.30;99.90;;;;;;5093064;28;20216;-60
2022/01/15 10:11:11;;;;;;;37.40;16.87;;;1.20;99.90;;;;;;5092649;28;20187;-61
2022/01/15 10:13:44;;;;;;;39.70;16.67;;;1.10;99.90;;;;;;5092937;28;20326;-60
2022/01/15 10:16:17;;;;;;;40.33;17.37;;;1.00;99.90;;;;;;5090642;28;20187;-60
2022/01/15 10:18:44;;;;;;;37.40;16.10;;;1.00;99.90;;;;;;5093234;28;20172;-61
2022/01/15 10:21:14;;;;;;;47.20;17.93;;;1.00;99.90;;;;;;5092620;28;20606;-60
2022/01/15 10:23:56;;;;;;;41.77;18.03;;;1.00;99.90;;;;;;5093156;28;20254;-60
2022/01/15 10:26:28;;;;;;;40.30;16.80;;;1.00;99.90;;;;;;5091699;28;20176;-61
2022/01/15 10:28:59;;;;;;;40.97;17.43;;;0.90;99.90;;;;;;5090766;28;20183;-63
2022/01/15 10:31:30;;;;;;;42.57;18.77;;;0.90;99.90;;;;;;5092050;28;20178;-62
2022/01/15 10:33:58;;;;;;;44.23;18.33;;;0.90;99.90;;;;;;5092552;28;20180;-64
2022/01/15 10:36:26;;;;;;;42.73;17.27;;;0.90;99.90;;;;;;5091176;28;20198;-63
2022/01/15 10:38:52;;;;;;;46.07;19.37;;;0.90;99.90;;;;;;5092757;28;20177;-60
2022/01/15 10:41:36;;;;;;;41.00;18.83;;;1.00;99.90;;;;;;5092103;28;20180;-61
2022/01/15 10:44:22;;;;;;;39.63;18.90;;;1.00;99.90;;;;;;5092545;28;20191;-61
2022/01/15 10:46:47;;;;;;;41.43;19.30;;;1.00;99.90;;;;;;5092032;28;20661;-61
2022/01/15 10:49:24;;;;;;;45.53;19.83;;;1.00;99.90;;;;;;5091249;28;20179;-64
2022/01/15 10:52:17;;;;;;;47.93;20.10;;;1.10;99.90;;;;;;5092464;28;20186;-62
2022/01/15 10:55:05;;;;;;;45.87;18.33;;;1.10;99.90;;;;;;5092279;28;20662;-62
2022/01/15 10:57:33;;;;;;;41.67;18.87;;;1.10;99.90;;;;;;5092453;28;20187;-61
2022/01/15 11:00:10;;;;;;;43.37;17.60;;;1.10;99.90;;;;;;5091761;28;20230;-63
2022/01/15 11:02:36;;;;;;;47.03;19.83;;;1.10;99.90;;;;;;5072312;28;20184;-63
2022/01/15 11:05:03;;;;;;;43.37;19.00;;;1.10;99.90;;;;;;5075697;28;20647;-63
2022/01/15 11:07:36;;;;;;;41.57;18.13;;;1.10;99.90;;;;;;5092246;28;20176;-61
2022/01/15 11:10:06;;;;;;;44.37;18.83;;;1.10;99.90;;;;;;5092125;28;20180;-62
2022/01/15 11:12:32;;;;;;;44.13;19.03;;;1.10;99.90;;;;;;5091369;28;20178;-62
2022/01/15 11:14:57;;;;;;;45.20;19.53;;;1.10;99.90;;;;;;5091373;28;20256;-62
2022/01/15 11:17:24;;;;;;;46.87;19.57;;;1.10;99.90;;;;;;5092269;28;20914;-61
2022/01/15 11:19:52;;;;;;;47.80;20.70;;;1.10;99.90;;;;;;5091723;28;20239;-62
2022/01/15 11:22:22;;;;;;;56.87;22.83;;;1.10;99.90;;;;;;5091702;28;20221;-62
2022/01/15 11:24:49;;;;;;;53.87;22.90;;;1.20;99.90;;;;;;5091704;28;20255;-61
2022/01/15 11:27:15;;;;;;;42.47;19.60;;;1.20;99.90;;;;;;5091565;28;20176;-63
2022/01/15 11:29:44;;;;;;;46.30;20.03;;;1.20;99.90;;;;;;5090427;28;20188;-63
2022/01/15 11:32:13;;;;;;;44.17;19.93;;;1.20;99.90;;;;;;5091771;28;20172;-63
2022/01/15 11:34:41;;;;;;;48.37;21.00;;;1.20;99.90;;;;;;5091054;28;20183;-61
2022/01/15 11:37:19;;;;;;;50.87;22.47;;;1.20;99.90;;;;;;5092237;28;20219;-62
2022/01/15 11:39:46;;;;;;;53.90;22.80;;;1.30;99.90;;;;;;5095972;28;20207;-61
2022/01/15 11:42:27;;;;;;;45.13;20.27;;;1.30;99.90;;;;;;5095259;28;20231;-62
2022/01/15 11:44:52;;;;;;;50.27;20.53;;;1.30;99.90;;;;;;5095984;28;20199;-65
2022/01/15 11:47:22;;;;;;;44.57;21.17;;;1.30;99.90;;;;;;5093943;28;20218;-62
2022/01/15 11:49:51;;;;;;;52.57;22.20;;;1.40;99.90;;;;;;5095737;28;20643;-61
2022/01/15 11:52:22;;;;;;;46.23;21.63;;;1.30;99.90;;;;;;5094772;28;20183;-62
2022/01/15 11:54:53;;;;;;;45.83;21.33;;;1.30;99.90;;;;;;5095233;28;20259;-63
2022/01/15 11:57:30;;;;;;;46.13;20.33;;;1.30;99.90;;;;;;5095399;28;20724;-62
2022/01/15 11:59:58;;;;;;;53.03;22.03;;;1.30;99.90;;;;;;5094074;28;20709;-62
2022/01/15 12:02:29;;;;;;;49.40;21.83;;;1.40;99.90;;;;;;5095515;28;20205;-62
2022/01/15 12:04:55;;;;;;;56.03;23.07;;;1.40;99.90;;;;;;5095065;28;20212;-62
2022/01/15 12:07:22;;;;;;;51.97;22.37;;;1.40;99.90;;;;;;5094071;28;20593;-62
2022/01/15 12:09:50;;;;;;;43.87;20.27;;;1.50;99.90;;;;;;5094975;28;20223;-62
2022/01/15 12:12:19;;;;;;;51.27;20.73;;;1.50;99.90;;;;;;5095239;28;20180;-62
2022/01/15 12:14:55;;;;;;;43.60;20.25;;;1.60;99.90;;;;;;5094840;28;20176;-62
2022/01/15 12:17:32;;;;;;;48.07;21.07;;;1.60;99.90;;;;;;5094897;28;20226;-61
2022/01/15 12:20:00;;;;;;;46.53;19.60;;;1.60;99.90;;;;;;5093863;28;20614;-61
2022/01/15 12:22:44;;;;;;;53.53;22.50;;;1.60;99.90;;;;;;5094761;28;20572;-61
2022/01/15 12:25:16;;;;;;;48.50;20.80;;;2.00;99.90;;;;;;5082810;28;20601;-62
2022/01/15 12:27:48;;;;;;;41.10;19.02;;;2.20;99.90;;;;;;5095088;28;20219;-62
2022/01/15 12:30:17;;;;;;;43.33;19.57;;;2.20;99.90;;;;;;5094800;28;20234;-62
2022/01/15 12:32:45;;;;;;;44.25;18.60;;;2.10;99.90;;;;;;5094907;28;20208;-63
2022/01/15 12:35:20;;;;;;;41.38;18.27;;;2.10;99.90;;;;;;5094726;28;20191;-62
2022/01/15 12:38:01;;;;;;;38.67;16.70;;;2.10;99.90;;;;;;5094595;28;20187;-61
2022/01/15 12:40:33;;;;;;;41.28;17.40;;;2.00;99.90;;;;;;5095048;28;20216;-62
2022/01/15 12:43:10;;;;;;;36.25;17.85;;;2.10;99.90;;;;;;5094778;28;20202;-61
2022/01/15 12:45:37;;;;;;;37.83;16.63;;;2.20;99.90;;;;;;5093644;28;20184;-62
2022/01/15 12:48:04;;;;;;;42.57;17.80;;;2.20;99.90;;;;;;5094177;28;20268;-62
2022/01/15 12:50:45;;;;;;;35.92;17.02;;;2.10;99.90;;;;;;5094496;28;20176;-62
2022/01/15 12:53:12;;;;;;;35.42;17.48;;;2.00;99.90;;;;;;5094466;28;20176;-62
2022/01/15 12:55:39;;;;;;;36.42;17.58;;;1.90;99.90;;;;;;5094507;28;20582;-62
2022/01/15 12:58:06;;;;;;;40.75;19.35;;;1.90;99.90;;;;;;5093760;28;20682;-62
2022/01/15 13:00:35;;;;;;;37.22;17.70;;;2.00;99.90;;;;;;5094429;28;20747;-62
2022/01/15 13:03:07;;;;;;;40.60;17.40;;;2.00;99.90;;;;;;5093660;28;20530;-62